Latest Weather Observations for Fingal

IDT60801

Issued at 4:35 pm EDT Saturday 1 November 2014 (issued every 30 minutes, with the page automatically refreshed every 10 minutes)

About weather observations | Map of weather stations | Latest weather observations for TAS | Other Formats
Station Details ID: 092012 Name: FINGAL (LEGGE STREET) Lat: -41.64 Lon: 147.97 Height: 237.0 m
Data from the previous 72 hours. | See also: Recent months at Fingal
Date/Time
EDT
Temp
°C
App
Temp
°C
Dew
Point
Rel
Hum
%
Delta-T
°C
Wind Press
QNH
hPa
Press
MSL
hPa
Rain
since 9 am
mm
Dir
 
Spd
km/h
Gust
km/h
Spd
kts
Gust
kts
01/04:30pm 13.9 5.9 -2.1 33 6.5 WNW 30 57 16 31 - - 0.0
01/04:00pm 15.4 7.7 -0.4 34 6.7 W 30 54 16 29 - - 0.0
01/03:30pm 15.7 8.0 2.2 40 6.1 W 32 54 17 29 - - 0.0
01/03:24pm 15.3 8.2 1.1 38 6.2 W 28 54 15 29 - - 0.0
01/03:00pm 14.4 8.7 2.6 45 5.3 NW 22 39 12 21 - - 0.0
01/02:30pm 13.3 5.3 1.6 45 5.1 W 33 57 18 31 - - 0.0
01/02:26pm 16.0 7.9 -0.2 33 7.0 WNW 32 57 17 31 - - 0.0
01/02:00pm 16.6 10.2 3.0 40 6.3 NW 26 37 14 20 - - 0.0
01/01:51pm 16.8 10.0 3.1 40 6.4 W 28 46 15 25 - - 0.0
01/01:30pm 16.0 9.5 0.2 34 6.9 W 24 37 13 20 - - 0.0
01/01:00pm 16.2 9.0 0.7 35 6.8 W 28 41 15 22 - - 0.0
01/12:30pm 16.4 10.3 0.1 33 7.1 W 22 37 12 20 - - 0.0
01/12:00pm 17.2 11.2 0.8 33 7.3 W 22 37 12 20 - - 0.0
01/11:30am 16.0 10.3 0.6 35 6.7 WSW 20 39 11 21 - - 0.0
01/11:00am 17.2 12.0 3.8 41 6.3 WSW 20 33 11 18 - - 0.0
01/10:30am 16.6 11.7 4.9 46 5.6 WSW 20 37 11 20 - - 0.0
01/10:00am 15.6 11.8 5.8 52 4.8 WSW 15 28 8 15 - - 0.0
01/09:30am 15.7 12.8 6.4 54 4.6 W 11 26 6 14 - - 0.0
01/09:00am 15.1 11.2 6.9 58 4.1 WNW 17 28 9 15 - - -
01/08:30am 14.8 10.9 7.1 60 3.8 WNW 17 26 9 14 - - -
01/08:00am 14.7 10.1 6.5 58 4.0 WNW 20 32 11 17 - - -
01/07:30am 15.0 10.8 5.8 54 4.5 WNW 17 32 9 17 - - -
01/07:00am 15.4 11.1 5.3 51 4.9 WNW 17 33 9 18 - - -
01/06:30am 15.5 11.2 5.4 51 4.9 W 17 32 9 17 - - -
01/06:00am 16.0 12.8 6.7 54 4.6 W 13 24 7 13 - - -
01/05:30am 16.0 12.7 6.4 53 4.7 WSW 13 22 7 12 - - -
01/05:00am 15.4 13.4 6.9 57 4.2 S 7 15 4 8 - - -
01/04:30am 14.4 12.4 8.8 69 2.9 W 9 19 5 10 - - -
01/04:00am 11.6 9.2 8.8 83 1.4 W 11 17 6 9 - - -
01/03:30am 12.0 10.2 8.1 77 1.9 WNW 7 15 4 8 - - -
01/03:00am 12.7 11.2 9.0 78 1.9 ESE 7 11 4 6 - - -
01/02:30am 11.3 9.6 8.3 82 1.5 E 7 13 4 7 - - -
01/02:00am 10.5 8.7 8.1 85 1.2 SE 7 13 4 7 - - 0.0
01/01:30am 10.5 8.7 8.1 85 1.2 SE 7 13 4 7 - - 0.0
01/01:00am 9.6 8.5 7.0 84 1.2 ENE 2 13 1 7 - - 0.0
01/12:30am 9.7 9.0 6.8 82 1.4 CALM 0 0 0 0 - - 0.0
01/12:00am 10.9 8.6 7.4 79 1.7 SE 9 9 5 5 - - 0.0
 
Date/Time
EDT
Temp
°C
App
Temp
°C
Dew
Point
Rel
Hum
%
Delta-T
°C
Wind Press
QNH
hPa
Press
MSL
hPa
Rain
since 9 am
mm
Dir
 
Spd
km/h
Gust
km/h
Spd
kts
Gust
kts
31/11:30pm 10.8 8.8 7.3 79 1.7 SE 7 11 4 6 - - 0.0
31/11:00pm 10.8 8.0 7.1 78 1.8 SSE 11 13 6 7 - - 0.0
31/10:30pm 11.7 10.0 7.4 75 2.1 SE 6 9 3 5 - - 0.0
31/10:00pm 12.6 10.4 7.9 73 2.3 SE 9 13 5 7 - - 0.0
31/09:30pm 13.4 11.2 7.8 69 2.8 SE 9 13 5 7 - - 0.0
31/09:00pm 14.4 11.5 8.1 66 3.2 NE 13 20 7 11 - - 0.0
31/08:30pm 15.1 11.7 7.6 61 3.8 NE 15 20 8 11 - - 0.0
31/08:00pm 15.4 13.2 7.9 61 3.8 NNE 9 17 5 9 - - 0.0
31/07:30pm 16.3 13.0 8.0 58 4.2 NNE 15 22 8 12 - - 0.0
31/07:00pm 17.3 13.5 9.2 59 4.3 NE 19 28 10 15 - - 0.0
31/06:30pm 18.1 14.7 10.5 61 4.1 NNE 19 26 10 14 - - 0.0
31/06:00pm 18.4 15.4 10.5 60 4.3 NNE 17 24 9 13 - - 0.0
31/05:30pm 18.0 14.4 10.6 62 4.0 N 20 28 11 15 - - 0.0
31/05:00pm 18.2 14.9 10.8 62 4.0 N 19 28 10 15 - - 0.0
31/04:30pm 18.7 15.2 11.0 61 4.2 NNE 20 28 11 15 - - 0.0
31/04:00pm 18.8 16.6 10.9 60 4.3 N 13 24 7 13 - - 0.0
31/03:30pm 19.6 16.9 11.6 60 4.5 N 17 24 9 13 - - 0.0
31/03:00pm 18.4 13.9 10.0 58 4.5 N 24 32 13 17 - - 0.0
31/02:30pm 18.4 14.2 9.7 57 4.7 NNE 22 32 12 17 - - 0.0
31/02:00pm 19.2 15.6 9.9 55 5.0 NE 19 24 10 13 - - 0.0
31/01:30pm 17.9 15.7 9.3 57 4.6 NNW 11 19 6 10 - - 0.0
31/01:00pm 18.7 16.4 10.5 59 4.5 NNW 13 19 7 10 - - 0.0
31/12:30pm 17.3 15.4 9.2 59 4.3 N 9 19 5 10 - - 0.0
31/12:00pm 16.1 14.4 7.6 57 4.3 WNW 6 13 3 7 - - 0.0
31/11:30am 15.3 13.5 8.1 62 3.7 NE 7 11 4 6 - - 0.0
31/11:00am 14.1 12.6 8.5 69 2.8 NW 6 9 3 5 - - 0.0
31/10:30am 11.4 9.9 8.6 83 1.4 WNW 6 7 3 4 - - 0.0
31/10:00am 10.4 8.7 8.2 86 1.1 W 7 9 4 5 - - 0.0
31/09:30am 10.1 9.4 8.4 89 0.8 WNW 2 7 1 4 - - 0.0
31/09:00am 9.3 7.7 8.1 92 0.6 WSW 6 7 3 4 - - 0.0
31/08:30am 8.8 7.6 7.9 94 0.4 W 4 7 2 4 - - 0.0
31/08:00am 8.6 6.7 7.7 94 0.4 WNW 7 9 4 5 - - 0.0
31/07:30am 7.3 6.5 6.4 94 0.4 CALM 0 6 0 3 - - 0.0
31/07:00am 6.9 6.0 6.0 94 0.4 CALM 0 0 0 0 - - 0.0
31/06:30am 6.5 5.5 5.6 94 0.4 CALM 0 0 0 0 - - 0.0
31/06:00am 6.5 4.2 5.5 93 0.4 SSE 7 7 4 4 - - 0.0
31/05:30am 7.4 6.6 6.5 94 0.4 CALM 0 6 0 3 - - 0.0
31/05:00am 7.5 5.5 6.4 93 0.5 SSE 6 7 3 4 - - 0.0
31/04:30am 7.3 6.4 6.2 93 0.5 CALM 0 0 0 0 - - 0.0
31/04:00am 7.2 6.3 6.0 92 0.5 CALM 0 0 0 0 - - 0.0
31/03:30am 7.3 6.4 5.9 91 0.6 CALM 0 0 0 0 - - 0.0
31/03:00am 7.4 6.5 6.0 91 0.6 CALM 0 0 0 0 - - 0.0
31/02:30am 8.1 7.4 6.9 92 0.6 CALM 0 0 0 0 - - 0.0
31/02:00am 7.5 6.6 6.1 91 0.6 CALM 0 0 0 0 - - 0.0
31/01:30am 7.7 5.7 6.2 90 0.7 SE 6 6 3 3 - - 0.0
31/01:00am 8.1 6.6 6.6 90 0.7 SE 4 9 2 5 - - 0.0
31/12:30am 8.7 8.1 7.2 90 0.7 CALM 0 0 0 0 - - 0.0
31/12:00am 9.3 8.8 7.7 90 0.8 CALM 0 0 0 0 - - 0.0
 
Date/Time
EDT
Temp
°C
App
Temp
°C
Dew
Point
Rel
Hum
%
Delta-T
°C
Wind Press
QNH
hPa
Press
MSL
hPa
Rain
since 9 am
mm
Dir
 
Spd
km/h
Gust
km/h
Spd
kts
Gust
kts
30/11:30pm 10.0 9.3 8.4 90 0.8 SE 2 6 1 3 - - 0.0
30/11:00pm 9.8 9.0 8.2 90 0.8 SE 2 7 1 4 - - 0.0
30/10:30pm 9.5 7.9 7.8 89 0.8 SE 6 7 3 4 - - 0.0
30/10:00pm 10.2 9.9 8.5 89 0.8 CALM 0 0 0 0 - - 0.0
30/09:30pm 10.6 9.2 8.7 88 0.9 N 6 9 3 5 - - 0.0
30/09:00pm 11.3 9.9 9.0 86 1.2 NW 6 7 3 4 - - 0.0
30/08:30pm 11.6 9.4 9.2 85 1.2 N 11 17 6 9 - - 0.0
30/08:00pm 12.2 10.3 9.0 81 1.6 N 9 13 5 7 - - 0.0
30/07:30pm 13.0 11.1 8.9 76 2.1 N 9 17 5 9 - - 0.0
30/07:00pm 16.3 13.3 5.9 50 5.1 WNW 11 13 6 7 - - 0.0
30/06:30pm 17.4 12.7 5.0 44 6.0 W 19 30 10 16 - - 0.0
30/06:00pm 17.7 12.9 4.6 42 6.3 W 19 35 10 19 - - 0.0
30/05:30pm 18.1 13.1 4.7 41 6.5 W 20 33 11 18 - - 0.0
30/05:00pm 18.0 12.6 4.6 41 6.5 W 22 37 12 20 - - 0.0
30/04:30pm 19.8 15.6 5.5 39 7.1 W 17 32 9 17 - - 0.0
30/04:00pm 19.5 14.6 5.2 39 7.1 WSW 20 35 11 19 - - 0.0
30/03:30pm 19.6 14.3 4.9 38 7.2 W 22 35 12 19 - - 0.0
30/03:00pm 19.2 14.4 4.6 38 7.1 W 19 30 10 16 - - 0.0
30/02:30pm 18.9 13.9 4.7 39 6.9 W 20 32 11 17 - - 0.0
30/02:00pm 18.6 13.8 5.8 43 6.4 WNW 20 28 11 15 - - 0.0
30/01:30pm 18.8 14.6 7.3 47 5.9 W 19 32 10 17 - - 0.0
30/01:00pm 18.6 14.1 6.1 44 6.2 W 19 32 10 17 - - 0.0
30/12:30pm 18.1 13.8 5.3 43 6.3 WSW 17 32 9 17 - - 0.0
30/12:00pm 17.8 14.4 5.7 45 6.0 WNW 13 24 7 13 - - 0.0
30/11:30am 16.8 14.0 5.1 46 5.7 WNW 9 15 5 8 - - 0.0
30/11:00am 16.1 14.0 6.5 53 4.8 NE 7 11 4 6 - - 0.0
30/10:30am 15.1 12.8 5.0 51 4.8 NNE 6 9 3 5 - - 0.0
30/10:00am 14.7 13.4 6.0 56 4.2 NNE 2 7 1 4 - - 0.0
30/09:30am 14.0 11.9 5.9 58 3.9 N 6 11 3 6 - - 0.0
30/09:00am 13.1 10.5 6.2 63 3.3 NNE 9 17 5 9 - - 0.0
30/08:30am 11.0 9.9 6.9 76 2.0 ENE 2 7 1 4 - - 0.0
30/08:00am 7.6 6.3 5.9 89 0.8 NE 2 7 1 4 - - 0.0
30/07:30am 5.1 3.3 3.6 90 0.6 NE 2 7 1 4 - - 0.0
30/07:00am 5.0 2.2 3.2 88 0.8 SE 7 9 4 5 - - 0.0
30/06:30am 4.2 2.2 2.4 88 0.7 SE 2 7 1 4 - - 0.0
30/06:00am 4.7 3.1 2.7 87 0.8 CALM 0 0 0 0 - - 0.0
30/05:30am 5.4 2.7 2.9 84 1.0 SSE 6 9 3 5 - - 0.0
30/05:00am 5.9 3.3 3.4 84 1.1 SE 6 11 3 6 - - 0.0
30/04:30am 6.4 4.3 3.7 83 1.2 N 4 9 2 5 - - 0.0
30/04:00am 7.2 5.2 4.5 83 1.2 NW 4 9 2 5 - - 0.0
30/03:30am 6.6 4.2 4.1 84 1.1 E 6 9 3 5 - - 0.0
30/03:00am 5.5 4.0 2.8 83 1.1 CALM 0 0 0 0 - - 0.0
30/02:30am 5.9 3.3 3.1 82 1.2 N 6 9 3 5 - - 0.0
30/02:00am 7.0 5.3 3.8 80 1.4 WNW 2 7 1 4 - - 0.0
30/01:30am 8.0 5.5 3.7 74 1.9 SW 6 11 3 6 - - 0.0
30/01:00am 8.0 6.6 3.8 75 1.8 CALM 0 0 0 0 - - 0.0
30/12:30am 9.2 7.9 4.2 71 2.2 CALM 0 0 0 0 - - 0.0
30/12:00am 9.7 7.0 3.7 66 2.7 NNW 7 11 4 6 - - 0.0
 
Date/Time
EDT
Temp
°C
App
Temp
°C
Dew
Point
Rel
Hum
%
Delta-T
°C
Wind Press
QNH
hPa
Press
MSL
hPa
Rain
since 9 am
mm
Dir
 
Spd
km/h
Gust
km/h
Spd
kts
Gust
kts
29/11:30pm 12.6 8.9 4.6 58 3.7 SW 13 20 7 11 - - 0.0
29/11:00pm 12.0 9.8 5.4 64 3.1 SSW 6 13 3 7 - - 0.0
29/10:30pm 11.4 8.7 3.9 60 3.4 NNW 7 13 4 7 - - 0.0
29/10:00pm 13.3 9.6 4.5 55 4.1 SW 13 20 7 11 - - 0.0
29/09:30pm 13.4 9.8 4.8 56 4.0 SW 13 24 7 13 - - 0.0
29/09:00pm 12.7 10.2 4.7 58 3.7 W 7 15 4 8 - - 0.0
29/08:30pm 12.1 9.7 4.1 58 3.6 W 6 11 3 6 - - 0.0
29/08:00pm 13.5 11.1 4.1 53 4.3 NNW 6 13 3 7 - - 0.0
29/07:30pm 15.2 12.3 4.9 50 4.9 WSW 9 15 5 8 - - 0.0
29/07:00pm 16.3 13.1 5.0 47 5.4 WSW 11 19 6 10 - - 0.0
29/06:30pm 16.8 13.2 5.1 46 5.7 WSW 13 24 7 13 - - 0.0
29/06:00pm 17.2 10.7 4.9 44 5.9 W 28 43 15 23 - - 0.0
29/05:30pm 17.5 11.1 5.1 44 6.0 W 28 44 15 24 - - 0.0
29/05:00pm 17.6 11.3 5.5 45 5.9 W 28 50 15 27 - - 0.0

Other Formats:

Comma delimited format used in spreadsheet applications
http://www.bom.gov.au/fwo/IDT60801/IDT60801.95974.axf

JavaScript Object Notation format (JSON) in row-major order
http://www.bom.gov.au/fwo/IDT60801/IDT60801.95974.json